createdAt,value
2023-01-18T00:01:27.958Z,38.27
2023-01-18T00:06:49.450Z,20.80
2023-01-18T00:12:10.600Z,19.67
2023-01-18T00:17:32.001Z,28.67
2023-01-18T00:22:53.977Z,33.23
2023-01-18T00:28:21.946Z,23.17
2023-01-18T00:33:47.730Z,19.77
2023-01-18T00:39:09.159Z,28.33
2023-01-18T00:44:30.413Z,19.27
2023-01-18T00:49:51.981Z,29.93
2023-01-18T00:55:15.038Z,22.23
2023-01-18T01:00:36.306Z,25.30
2023-01-18T01:06:16.379Z,19.30
2023-01-18T01:11:37.943Z,21.43
2023-01-18T01:17:17.660Z,22.17
2023-01-18T01:22:57.774Z,28.23
2023-01-18T01:28:19.905Z,23.27
2023-01-18T01:33:42.210Z,23.00
2023-01-18T01:39:03.553Z,18.33
2023-01-18T01:44:25.230Z,23.33
2023-01-18T01:49:50.729Z,23.57
2023-01-18T01:55:21.410Z,24.43
2023-01-18T02:00:43.228Z,22.80
2023-01-18T02:06:16.564Z,23.20
2023-01-18T02:11:38.558Z,24.37
2023-01-18T02:17:06.057Z,22.97
2023-01-18T02:22:48.549Z,29.50
2023-01-18T02:28:19.610Z,26.27
2023-01-18T02:33:48.626Z,41.93
2023-01-18T02:39:23.594Z,32.13
2023-01-18T02:45:06.159Z,19.90
2023-01-18T02:50:28.567Z,19.67
2023-01-18T02:57:24.314Z,16.90
2023-01-18T03:02:56.571Z,17.50
2023-01-18T03:08:29.928Z,15.77
2023-01-18T03:14:10.990Z,14.07
2023-01-18T03:20:05.894Z,15.97
2023-01-18T03:25:36.758Z,20.00
2023-01-18T03:31:21.383Z,17.97
2023-01-18T03:36:49.374Z,17.60
2023-01-18T03:42:19.805Z,18.13
2023-01-18T03:47:41.482Z,15.77
2023-01-18T03:53:09.854Z,17.57
2023-01-18T03:58:36.273Z,18.10
2023-01-18T04:03:57.531Z,16.60
2023-01-18T04:09:19.299Z,19.40
2023-01-18T04:14:40.870Z,17.50
2023-01-18T04:20:02.302Z,18.43
2023-01-18T04:25:23.845Z,18.57
2023-01-18T04:30:45.319Z,20.57
2023-01-18T04:36:07.258Z,18.63
2023-01-18T04:41:28.759Z,19.17
2023-01-18T04:46:51.168Z,17.73
2023-01-18T04:52:12.455Z,23.30
2023-01-18T04:57:34.256Z,20.60
2023-01-18T05:02:55.774Z,25.10
2023-01-18T05:08:17.954Z,21.80
2023-01-18T05:13:39.884Z,21.93
2023-01-18T05:19:01.428Z,19.90
2023-01-18T05:24:28.851Z,21.70
2023-01-18T05:29:51.613Z,20.73
2023-01-18T05:35:12.802Z,23.13
2023-01-18T05:40:34.031Z,21.20
2023-01-18T05:45:55.759Z,28.07
2023-01-18T05:51:17.002Z,26.00
2023-01-18T05:56:38.770Z,24.43
2023-01-18T06:02:00.151Z,25.73
2023-01-18T06:07:21.664Z,22.47
2023-01-18T06:12:44.152Z,26.43
2023-01-18T06:18:05.608Z,23.80
2023-01-18T06:23:27.354Z,26.53
2023-01-18T06:28:48.921Z,25.70
2023-01-18T06:34:10.152Z,33.03
2023-01-18T06:39:31.559Z,26.77
2023-01-18T06:44:52.869Z,27.73
2023-01-18T06:50:14.420Z,30.67
2023-01-18T06:55:35.917Z,28.67
2023-01-18T07:00:59.663Z,24.40
2023-01-18T07:06:21.744Z,26.23
2023-01-18T07:11:43.585Z,25.60
2023-01-18T07:17:04.970Z,23.73
2023-01-18T07:22:26.617Z,26.07
2023-01-18T07:27:49.265Z,23.87
2023-01-18T07:33:11.675Z,29.90
2023-01-18T07:38:33.990Z,24.50
2023-01-18T07:43:55.972Z,25.40
2023-01-18T07:49:17.622Z,27.27
2023-01-18T07:54:38.751Z,25.87
2023-01-18T08:00:00.243Z,26.33
2023-01-18T08:05:24.243Z,30.97
2023-01-18T08:10:45.957Z,29.07
2023-01-18T08:16:11.288Z,27.87
2023-01-18T08:21:33.747Z,25.47
2023-01-18T08:26:54.919Z,30.83
2023-01-18T08:32:16.636Z,25.43
2023-01-18T08:37:38.881Z,23.83
2023-01-18T08:43:02.497Z,24.53
2023-01-18T08:48:24.048Z,23.00
2023-01-18T08:53:46.778Z,23.67
2023-01-18T08:59:11.225Z,23.43
2023-01-18T09:04:34.016Z,23.70
2023-01-18T09:09:55.199Z,23.03
2023-01-18T09:15:18.275Z,21.63
2023-01-18T09:20:39.848Z,22.93
2023-01-18T09:26:06.818Z,23.80
2023-01-18T09:31:29.630Z,24.73
2023-01-18T09:36:52.296Z,25.03
2023-01-18T09:42:23.126Z,24.13
2023-01-18T09:47:47.386Z,27.33
2023-01-18T09:53:32.732Z,23.47
2023-01-18T09:59:19.403Z,20.90
2023-01-18T10:04:47.821Z,23.47
2023-01-18T10:10:19.166Z,21.40
2023-01-18T10:15:41.709Z,20.47
2023-01-18T10:21:07.121Z,21.17
2023-01-18T10:26:31.391Z,23.00
2023-01-18T10:32:03.296Z,22.63
2023-01-18T10:37:40.457Z,24.27
2023-01-18T10:43:04.502Z,22.30
2023-01-18T10:48:34.095Z,18.10
2023-01-18T10:53:56.463Z,21.00
2023-01-18T10:59:40.077Z,21.77
2023-01-18T11:05:08.208Z,21.67
2023-01-18T11:10:29.678Z,22.87
2023-01-18T11:16:05.854Z,18.33
2023-01-18T11:21:33.271Z,19.13
2023-01-18T11:26:56.687Z,15.43
2023-01-18T11:32:27.065Z,17.13
2023-01-18T11:37:49.050Z,14.17
2023-01-18T11:43:19.522Z,17.10
2023-01-18T11:49:09.947Z,19.10
2023-01-18T11:54:38.952Z,19.80
2023-01-18T12:00:00.272Z,18.43
2023-01-18T12:05:50.080Z,19.77
2023-01-18T12:11:37.262Z,17.87
2023-01-18T12:17:20.677Z,16.77
2023-01-18T12:23:19.154Z,17.97
2023-01-18T12:29:12.070Z,17.03
2023-01-18T12:34:54.645Z,17.57
2023-01-18T12:40:48.179Z,15.57
2023-01-18T12:46:27.688Z,16.90
2023-01-18T12:51:53.268Z,18.67
2023-01-18T12:57:17.167Z,17.17
2023-01-18T13:02:44.513Z,17.03
2023-01-18T13:08:30.087Z,15.33
2023-01-18T13:14:07.241Z,14.83
2023-01-18T13:20:02.355Z,12.73
2023-01-18T13:25:50.039Z,11.90
2023-01-18T13:31:12.132Z,11.87
2023-01-18T13:36:44.910Z,16.00
2023-01-18T13:42:24.497Z,14.70
2023-01-18T13:47:54.099Z,18.47
2023-01-18T13:53:15.624Z,16.93
2023-01-18T13:58:38.773Z,15.80
2023-01-18T14:04:19.448Z,15.70
2023-01-18T14:09:47.986Z,12.87
2023-01-18T14:15:29.207Z,11.80
2023-01-18T14:21:05.798Z,11.77
2023-01-18T14:26:31.037Z,11.53
2023-01-18T14:31:57.374Z,11.30
2023-01-18T14:37:28.793Z,10.87
2023-01-18T14:43:01.827Z,9.73
2023-01-18T14:48:25.085Z,9.70
2023-01-18T14:53:52.957Z,13.93
2023-01-18T14:59:22.082Z,12.83
2023-01-18T15:04:45.784Z,11.50
2023-01-18T15:10:09.061Z,10.60
2023-01-18T15:15:33.977Z,11.70
2023-01-18T15:21:02.736Z,11.73
2023-01-18T15:26:45.001Z,9.13
2023-01-18T15:32:16.546Z,8.83
2023-01-18T15:37:38.173Z,10.07
2023-01-18T15:43:28.933Z,8.97
2023-01-18T15:48:54.857Z,8.80
2023-01-18T15:54:28.628Z,9.43
2023-01-18T15:59:50.424Z,8.17
2023-01-18T16:05:22.105Z,11.57
2023-01-18T16:10:55.316Z,9.17
2023-01-18T16:16:22.548Z,12.20
2023-01-18T16:21:54.412Z,17.50
2023-01-18T16:27:19.262Z,16.13
2023-01-18T16:32:40.711Z,16.43
2023-01-18T16:38:02.504Z,18.97
2023-01-18T16:43:29.573Z,17.17
2023-01-18T16:48:51.764Z,22.97
2023-01-18T16:54:13.289Z,22.80
2023-01-18T16:59:34.820Z,24.30
2023-01-18T17:04:56.403Z,26.67
2023-01-18T17:10:36.431Z,24.93
2023-01-18T17:15:57.758Z,16.70
2023-01-18T17:21:19.259Z,14.33
2023-01-18T17:26:42.247Z,15.70
2023-01-18T17:32:03.716Z,15.87
2023-01-18T17:37:25.256Z,15.83
2023-01-18T17:42:47.114Z,15.70
2023-01-18T17:48:09.041Z,11.47
2023-01-18T17:53:30.474Z,13.60
2023-01-18T17:58:53.731Z,13.57
2023-01-18T18:04:15.291Z,13.73
2023-01-18T18:09:40.744Z,17.70
2023-01-18T18:15:03.086Z,14.67
2023-01-18T18:20:24.886Z,18.03
2023-01-18T18:25:48.903Z,20.10
2023-01-18T18:31:16.196Z,21.47
2023-01-18T18:36:37.722Z,21.97
2023-01-18T18:42:02.422Z,19.03
2023-01-18T18:47:23.927Z,18.00
2023-01-18T18:52:45.574Z,16.63
2023-01-18T18:58:07.155Z,17.17
2023-01-18T19:03:28.787Z,19.60
2023-01-18T19:08:50.928Z,26.00
2023-01-18T19:14:14.804Z,29.10
2023-01-18T19:19:36.190Z,34.00
2023-01-18T19:24:57.835Z,40.10
2023-01-18T19:30:19.431Z,31.63
2023-01-18T19:35:44.069Z,47.07
2023-01-18T19:41:05.690Z,67.23
2023-01-18T19:46:27.292Z,33.20
2023-01-18T19:51:48.949Z,38.30
2023-01-18T19:57:10.544Z,31.33
2023-01-18T20:02:32.366Z,32.37
2023-01-18T20:07:54.169Z,34.30
2023-01-18T20:13:15.564Z,31.57
2023-01-18T20:18:40.941Z,31.60
2023-01-18T20:24:02.367Z,28.53
2023-01-18T20:29:24.399Z,26.47
2023-01-18T20:34:47.280Z,27.93
2023-01-18T20:40:09.652Z,32.23
2023-01-18T20:45:31.584Z,33.20
2023-01-18T20:50:53.005Z,34.37
2023-01-18T20:56:28.363Z,33.60
2023-01-18T21:01:51.154Z,27.67
2023-01-18T21:07:12.595Z,26.07
2023-01-18T21:12:34.174Z,29.93
2023-01-18T21:17:55.604Z,41.53
2023-01-18T21:23:17.819Z,30.80
2023-01-18T21:28:39.518Z,27.83
2023-01-18T21:34:01.216Z,28.20
2023-01-18T21:39:25.573Z,29.17
2023-01-18T21:45:05.325Z,32.13
2023-01-18T21:50:45.812Z,33.53
2023-01-18T21:56:07.353Z,35.93
2023-01-18T22:01:34.580Z,31.17
2023-01-18T22:06:59.376Z,30.27
2023-01-18T22:12:20.924Z,33.63
2023-01-18T22:17:42.297Z,35.87
2023-01-18T22:23:03.882Z,33.13
2023-01-18T22:28:25.423Z,34.23
2023-01-18T22:33:48.429Z,33.00
2023-01-18T22:39:11.969Z,34.40
2023-01-18T22:44:33.354Z,31.97
2023-01-18T22:49:55.029Z,31.73
2023-01-18T22:55:16.625Z,32.27
2023-01-18T23:00:38.360Z,27.67
2023-01-18T23:06:00.914Z,32.40
2023-01-18T23:11:25.915Z,31.33
2023-01-18T23:17:07.632Z,31.80
2023-01-18T23:22:29.065Z,32.37
2023-01-18T23:27:50.588Z,32.60
2023-01-18T23:33:12.206Z,26.30
2023-01-18T23:38:52.430Z,28.40
2023-01-18T23:44:32.615Z,26.80
2023-01-18T23:50:12.769Z,27.73
2023-01-18T23:55:34.252Z,25.33
